createdAt,value
2018-11-02T00:01:09.055Z,99692.19
2018-11-02T00:03:41.659Z,99697.33
2018-11-02T00:06:16.360Z,99698.52
2018-11-02T00:08:48.876Z,99703.23
2018-11-02T00:11:22.511Z,99709.67
2018-11-02T00:13:55.413Z,99708.11
2018-11-02T00:16:28.580Z,99713.07
2018-11-02T00:19:03.255Z,99710.53
2018-11-02T00:21:36.050Z,99716.47
2018-11-02T00:24:09.036Z,99715.80
2018-11-02T00:26:43.427Z,99719.15
2018-11-02T00:29:16.752Z,99718.83
2018-11-02T00:31:49.420Z,99719.31
2018-11-02T00:34:22.045Z,99713.49
2018-11-02T00:36:55.306Z,99709.59
2018-11-02T00:39:28.073Z,99690.30
2018-11-02T00:42:00.755Z,99687.87
2018-11-02T00:44:35.749Z,99690.72
2018-11-02T00:47:08.934Z,99696.62
2018-11-02T00:49:41.609Z,99706.01
2018-11-02T00:52:15.194Z,99710.40
2018-11-02T00:54:49.214Z,99717.51
2018-11-02T00:57:21.994Z,99723.80
2018-11-02T00:59:58.836Z,99730.52
2018-11-02T01:02:32.393Z,99739.57
2018-11-02T01:05:06.493Z,99750.14
2018-11-02T01:07:39.481Z,99754.77
2018-11-02T01:10:12.025Z,99756.45
2018-11-02T01:12:46.293Z,99757.53
2018-11-02T01:15:19.946Z,99761.17
2018-11-02T01:17:53.457Z,99761.50
2018-11-02T01:20:26.399Z,99767.76
2018-11-02T01:22:59.942Z,99767.84
2018-11-02T01:25:32.605Z,99771.02
2018-11-02T01:28:06.388Z,99767.75
2018-11-02T01:30:39.148Z,99777.70
2018-11-02T01:33:11.781Z,99787.95
2018-11-02T01:35:45.058Z,99790.94
2018-11-02T01:38:18.082Z,99798.03
2018-11-02T01:40:50.781Z,99806.17
2018-11-02T01:43:23.613Z,99808.98
2018-11-02T01:45:56.174Z,99805.70
2018-11-02T01:48:31.914Z,99808.09
2018-11-02T01:51:11.045Z,99803.85
2018-11-02T01:53:44.944Z,99809.33
2018-11-02T01:56:18.053Z,99808.90
2018-11-02T01:58:50.630Z,99809.00
2018-11-02T02:01:23.813Z,99815.12
2018-11-02T02:03:59.481Z,99820.45
2018-11-02T02:06:32.156Z,99825.41
2018-11-02T02:09:09.366Z,99833.34
2018-11-02T02:11:42.048Z,99834.16
2018-11-02T02:14:15.317Z,99838.37
2018-11-02T02:16:48.022Z,99839.59
2018-11-02T02:19:20.869Z,99831.70
2018-11-02T02:21:54.042Z,99838.73
2018-11-02T02:24:26.566Z,99839.98
2018-11-02T02:26:59.562Z,99851.95
2018-11-02T02:29:33.415Z,99852.09
2018-11-02T02:32:06.205Z,99861.80
2018-11-02T02:34:39.345Z,99866.83
2018-11-02T02:37:12.327Z,99861.17
2018-11-02T02:39:45.883Z,99867.84
2018-11-02T02:42:19.503Z,99871.92
2018-11-02T02:44:52.130Z,99866.34
2018-11-02T02:47:25.595Z,99872.96
2018-11-02T02:49:59.502Z,99879.77
2018-11-02T02:52:32.061Z,99889.16
2018-11-02T02:55:06.563Z,99890.95
2018-11-02T02:57:39.689Z,99898.42
2018-11-02T03:00:13.961Z,99908.22
2018-11-02T03:02:46.491Z,99905.54
2018-11-02T03:05:19.603Z,99910.77
2018-11-02T03:07:52.231Z,99918.12
2018-11-02T03:10:24.930Z,99918.70
2018-11-02T03:12:57.866Z,99918.95
2018-11-02T03:15:30.377Z,99928.36
2018-11-02T03:18:03.022Z,99935.91
2018-11-02T03:20:35.999Z,99936.93
2018-11-02T03:23:08.724Z,99940.23
2018-11-02T03:25:41.399Z,99935.98
2018-11-02T03:28:14.262Z,99945.01
2018-11-02T03:30:46.913Z,99951.89
2018-11-02T03:33:19.424Z,99959.89
2018-11-02T03:35:52.251Z,99959.28
2018-11-02T03:38:25.493Z,99967.77
2018-11-02T03:40:59.016Z,99962.34
2018-11-02T03:43:35.761Z,99971.66
2018-11-02T03:46:08.934Z,99973.19
2018-11-02T03:48:42.484Z,99977.47
2018-11-02T03:51:15.129Z,99983.55
2018-11-02T03:53:48.067Z,99996.05
2018-11-02T03:56:20.617Z,99995.71
2018-11-02T03:58:53.161Z,99997.35
2018-11-02T04:01:26.010Z,100001.50
2018-11-02T04:03:59.470Z,99998.93
2018-11-02T04:06:32.008Z,100001.89
2018-11-02T04:09:06.436Z,100006.43
2018-11-02T04:11:40.054Z,100013.38
2018-11-02T04:14:13.018Z,100014.05
2018-11-02T04:16:45.993Z,100025.73
2018-11-02T04:19:18.697Z,100033.19
2018-11-02T04:21:51.384Z,100039.90
2018-11-02T04:24:24.365Z,100050.55
2018-11-02T04:26:56.891Z,100054.48
2018-11-02T04:29:29.813Z,100059.25
2018-11-02T04:32:02.671Z,100056.73
2018-11-02T04:34:35.995Z,100060.08
2018-11-02T04:37:08.699Z,100065.36
2018-11-02T04:39:41.893Z,100072.70
2018-11-02T04:42:14.541Z,100084.23
2018-11-02T04:44:47.386Z,100097.86
2018-11-02T04:47:20.593Z,100104.25
2018-11-02T04:49:53.675Z,100102.64
2018-11-02T04:52:26.415Z,100102.38
2018-11-02T04:55:01.230Z,100109.98
2018-11-02T04:57:34.754Z,100113.02
2018-11-02T05:00:10.113Z,100115.63
2018-11-02T05:02:45.413Z,100122.05
2018-11-02T05:05:18.009Z,100127.33
2018-11-02T05:07:51.405Z,100134.19
2018-11-02T05:10:23.977Z,100149.54
2018-11-02T05:12:58.073Z,100155.69
2018-11-02T05:15:31.910Z,100161.94
2018-11-02T05:18:04.580Z,100167.93
2018-11-02T05:20:37.417Z,100168.37
2018-11-02T05:23:11.318Z,100167.17
2018-11-02T05:25:43.977Z,100174.64
2018-11-02T05:28:16.767Z,100180.34
2018-11-02T05:30:50.666Z,100193.57
2018-11-02T05:33:23.238Z,100196.78
2018-11-02T05:35:56.118Z,100209.76
2018-11-02T05:38:29.090Z,100211.77
2018-11-02T05:41:03.416Z,100215.26
2018-11-02T05:43:36.030Z,100214.48
2018-11-02T05:46:09.189Z,100223.31
2018-11-02T05:48:42.429Z,100227.24
2018-11-02T05:51:15.101Z,100225.64
2018-11-02T05:53:48.954Z,100232.89
2018-11-02T05:56:21.921Z,100239.69
2018-11-02T05:58:54.509Z,100240.47
2018-11-02T06:01:27.518Z,100246.28
2018-11-02T06:04:01.602Z,100255.67
2018-11-02T06:06:35.814Z,100254.22
2018-11-02T06:09:09.152Z,100262.12
2018-11-02T06:11:41.866Z,100261.31
2018-11-02T06:14:17.536Z,100267.27
2018-11-02T06:16:55.031Z,100275.91
2018-11-02T06:19:29.170Z,100277.01
2018-11-02T06:22:03.270Z,100285.59
2018-11-02T06:24:40.612Z,100288.50
2018-11-02T06:27:15.421Z,100289.06
2018-11-02T06:29:51.742Z,100298.95
2018-11-02T06:32:25.327Z,100300.18
2018-11-02T06:34:57.855Z,100314.89
2018-11-02T06:37:32.998Z,100317.69
2018-11-02T06:40:07.613Z,100320.08
2018-11-02T06:42:40.657Z,100333.18
2018-11-02T06:45:15.063Z,100346.84
2018-11-02T06:47:48.993Z,100348.44
2018-11-02T06:50:27.285Z,100353.95
2018-11-02T06:53:01.990Z,100361.92
2018-11-02T06:55:38.218Z,100370.32
2018-11-02T06:58:12.095Z,100381.27
2018-11-02T07:00:46.518Z,100383.31
2018-11-02T07:03:19.844Z,100392.69
2018-11-02T07:05:54.395Z,100392.09
2018-11-02T07:08:28.649Z,100399.38
2018-11-02T07:11:05.568Z,100403.77
2018-11-02T07:13:39.082Z,100402.98
2018-11-02T07:16:16.732Z,100407.18
2018-11-02T07:18:50.439Z,100412.11
2018-11-02T07:21:23.466Z,100411.76
2018-11-02T07:23:58.602Z,100426.30
2018-11-02T07:26:32.146Z,100427.69
2018-11-02T07:29:05.870Z,100428.57
2018-11-02T07:31:38.983Z,100433.17
2018-11-02T07:34:12.591Z,100435.28
2018-11-02T07:36:46.992Z,100440.31
2018-11-02T07:39:20.741Z,100440.35
2018-11-02T07:41:54.934Z,100444.24
2018-11-02T07:44:31.617Z,100452.03
2018-11-02T07:47:04.783Z,100456.14
2018-11-02T07:49:41.741Z,100457.02
2018-11-02T07:52:15.070Z,100454.44
2018-11-02T07:54:48.002Z,100459.36
2018-11-02T07:57:22.864Z,100461.84
2018-11-02T07:59:56.749Z,100464.56
2018-11-02T08:02:29.371Z,100466.63
2018-11-02T08:05:03.279Z,100468.44
2018-11-02T08:07:36.655Z,100472.10
2018-11-02T08:10:09.666Z,100470.67
2018-11-02T08:12:43.432Z,100476.48
2018-11-02T08:15:19.626Z,100474.70
2018-11-02T08:17:56.053Z,100481.30
2018-11-02T08:20:29.830Z,100483.66
2018-11-02T08:23:03.285Z,100485.89
2018-11-02T08:25:37.010Z,100482.80
2018-11-02T08:28:14.068Z,100484.95
2018-11-02T08:30:50.212Z,100480.86
2018-11-02T08:33:23.645Z,100485.06
2018-11-02T08:35:58.848Z,100493.20
2018-11-02T08:38:35.642Z,100489.64
2018-11-02T08:41:12.026Z,100498.83
2018-11-02T08:43:47.647Z,100503.04
2018-11-02T08:46:22.902Z,100504.93
2018-11-02T08:48:56.845Z,100512.91
2018-11-02T08:51:32.133Z,100512.56
2018-11-02T08:54:04.917Z,100518.27
2018-11-02T08:56:37.918Z,100519.48
2018-11-02T08:59:10.648Z,100526.60
2018-11-02T09:01:46.513Z,100530.36
2018-11-02T09:04:22.583Z,100533.91
2018-11-02T09:06:55.283Z,100537.38
2018-11-02T09:09:28.394Z,100534.77
2018-11-02T09:12:06.927Z,100535.20
2018-11-02T09:14:41.636Z,100534.09
2018-11-02T09:17:16.610Z,100543.08
2018-11-02T09:19:53.523Z,100546.37
2018-11-02T09:22:30.470Z,100542.34
2018-11-02T09:25:04.474Z,100543.61
2018-11-02T09:27:38.482Z,100550.36
2018-11-02T09:30:19.218Z,100555.95
2018-11-02T09:32:54.679Z,100554.11
2018-11-02T09:35:29.337Z,100557.74
2018-11-02T09:38:03.843Z,100567.72
2018-11-02T09:40:38.862Z,100570.16
2018-11-02T09:43:13.713Z,100572.31
2018-11-02T09:45:49.689Z,100576.88
2018-11-02T09:48:25.613Z,100589.37
2018-11-02T09:51:02.833Z,100596.59
2018-11-02T09:53:39.944Z,100594.75
2018-11-02T09:56:21.327Z,100599.48
2018-11-02T09:58:55.819Z,100601.31
2018-11-02T10:01:32.906Z,100598.64
2018-11-02T10:04:09.925Z,100596.57
2018-11-02T10:06:45.108Z,100599.43
2018-11-02T10:09:20.874Z,100598.38
2018-11-02T10:11:57.848Z,100594.57
2018-11-02T10:14:32.906Z,100601.16
2018-11-02T10:17:06.777Z,100612.84
2018-11-02T10:19:40.545Z,100616.03
2018-11-02T10:22:16.999Z,100615.84
2018-11-02T10:24:50.693Z,100615.64
2018-11-02T10:27:28.643Z,100621.72
2018-11-02T10:30:06.282Z,100617.72
2018-11-02T10:32:57.598Z,100627.14
2018-11-02T10:35:37.359Z,100631.25
2018-11-02T10:38:10.355Z,100632.90
2018-11-02T10:40:53.480Z,100638.91
2018-11-02T10:43:41.510Z,100641.53
2018-11-02T10:46:19.062Z,100644.75
2018-11-02T10:48:53.693Z,100643.17
2018-11-02T10:51:29.269Z,100651.09
2018-11-02T10:54:04.872Z,100654.91
2018-11-02T10:56:42.524Z,100651.84
2018-11-02T10:59:20.756Z,100648.94
2018-11-02T11:02:01.226Z,100649.88
2018-11-02T11:04:44.133Z,100646.40
2018-11-02T11:07:21.708Z,100650.44
2018-11-02T11:09:56.813Z,100652.14
2018-11-02T11:12:33.938Z,100642.58
2018-11-02T11:15:08.658Z,100649.84
2018-11-02T11:17:45.703Z,100650.41
2018-11-02T11:20:20.493Z,100662.98
2018-11-02T11:23:00.721Z,100661.77
2018-11-02T11:25:36.611Z,100664.64
2018-11-02T11:28:09.339Z,100666.05
2018-11-02T11:30:49.117Z,100662.89
2018-11-02T11:33:25.577Z,100662.55
2018-11-02T11:35:58.383Z,100672.75
2018-11-02T11:38:38.754Z,100673.63
2018-11-02T11:41:14.663Z,100673.80
2018-11-02T11:43:51.899Z,100676.45
2018-11-02T11:46:27.747Z,100672.25
2018-11-02T11:49:03.248Z,100674.35
2018-11-02T11:51:40.349Z,100680.24
2018-11-02T11:54:13.923Z,100682.48
2018-11-02T11:56:50.775Z,100680.77
2018-11-02T11:59:41.371Z,100684.23
2018-11-02T12:02:18.144Z,100682.22
2018-11-02T12:04:54.726Z,100680.74
2018-11-02T12:07:32.059Z,100682.44
2018-11-02T12:10:07.923Z,100684.37
2018-11-02T12:12:41.649Z,100683.16
2018-11-02T12:15:28.202Z,100679.80
2018-11-02T12:18:08.599Z,100687.23
2018-11-02T12:20:51.818Z,100698.31
2018-11-02T12:23:27.278Z,100706.69
2018-11-02T12:26:01.466Z,100708.11
2018-11-02T12:28:37.278Z,100711.91
2018-11-02T12:31:12.189Z,100709.96
2018-11-02T12:33:57.265Z,100706.56
2018-11-02T12:36:32.830Z,100710.59
2018-11-02T12:39:09.050Z,100716.84
2018-11-02T12:41:43.151Z,100709.34
2018-11-02T12:44:18.723Z,100705.75
2018-11-02T12:47:08.620Z,100706.91
2018-11-02T12:49:48.004Z,100709.92
2018-11-02T12:52:22.040Z,100712.00
2018-11-02T12:54:58.267Z,100711.27
2018-11-02T12:57:37.304Z,100712.45
2018-11-02T13:00:18.628Z,100723.09
2018-11-02T13:02:53.901Z,100723.12
2018-11-02T13:05:29.839Z,100730.41
2018-11-02T13:08:04.783Z,100732.13
2018-11-02T13:10:44.708Z,100732.87
2018-11-02T13:13:21.180Z,100734.95
2018-11-02T13:15:55.594Z,100736.33
2018-11-02T13:18:29.275Z,100736.31
2018-11-02T13:21:06.255Z,100739.07
2018-11-02T13:23:47.691Z,100735.37
2018-11-02T13:26:22.533Z,100737.33
2018-11-02T13:28:56.792Z,100741.42
2018-11-02T13:31:36.565Z,100744.52
2018-11-02T13:34:11.353Z,100742.88
2018-11-02T13:36:44.392Z,100745.52
2018-11-02T13:39:27.549Z,100750.88
2018-11-02T13:42:01.904Z,100752.66
2018-11-02T13:44:35.512Z,100757.14
2018-11-02T13:47:13.757Z,100760.03
2018-11-02T13:49:49.625Z,100763.65
2018-11-02T13:52:23.526Z,100772.41
2018-11-02T13:55:08.674Z,100780.33
2018-11-02T13:57:58.642Z,100782.33
2018-11-02T14:00:35.760Z,100783.94
2018-11-02T14:03:10.278Z,100785.11
2018-11-02T14:05:44.440Z,100787.53
2018-11-02T14:08:22.651Z,100801.17
2018-11-02T14:10:55.841Z,100807.11
2018-11-02T14:13:31.458Z,100810.16
2018-11-02T14:16:05.577Z,100815.18
2018-11-02T14:18:45.512Z,100818.76
2018-11-02T14:21:23.189Z,100822.80
2018-11-02T14:24:05.809Z,100817.69
2018-11-02T14:26:43.114Z,100818.23
2018-11-02T14:29:23.435Z,100826.92
2018-11-02T14:31:59.222Z,100825.97
2018-11-02T14:34:34.291Z,100834.89
2018-11-02T14:37:10.666Z,100837.53
2018-11-02T14:39:45.999Z,100847.95
2018-11-02T14:42:29.526Z,100854.78
2018-11-02T14:45:08.760Z,100860.47
2018-11-02T14:47:50.849Z,100865.77
2018-11-02T14:50:26.791Z,100867.82
2018-11-02T14:53:01.070Z,100874.33
2018-11-02T14:55:37.261Z,100877.22
2018-11-02T14:58:15.998Z,100883.25
2018-11-02T15:00:52.594Z,100878.91
2018-11-02T15:03:34.620Z,100885.91
2018-11-02T15:06:09.244Z,100891.74
2018-11-02T15:08:45.714Z,100899.28
2018-11-02T15:11:44.458Z,100901.56
2018-11-02T15:14:19.623Z,100908.53
2018-11-02T15:16:55.703Z,100914.97
2018-11-02T15:19:29.226Z,100911.74
2018-11-02T15:22:04.104Z,100912.95
2018-11-02T15:24:43.833Z,100907.37
2018-11-02T15:27:18.094Z,100904.70
2018-11-02T15:29:52.790Z,100907.54
2018-11-02T15:32:31.519Z,100904.33
2018-11-02T15:35:08.732Z,100911.39
2018-11-02T15:38:01.873Z,100909.98
2018-11-02T15:40:36.234Z,100916.61
2018-11-02T15:43:17.861Z,100916.89
2018-11-02T15:45:54.061Z,100922.05
2018-11-02T15:48:45.947Z,100917.84
2018-11-02T15:51:19.363Z,100918.37
2018-11-02T15:53:59.297Z,100924.17
2018-11-02T15:56:36.146Z,100932.61
2018-11-02T15:59:28.214Z,100934.14
2018-11-02T16:02:07.584Z,100932.69
2018-11-02T16:04:46.583Z,100937.69
2018-11-02T16:08:22.943Z,100938.98
2018-11-02T16:11:10.926Z,100941.14
2018-11-02T16:14:19.361Z,100943.38
2018-11-02T16:17:09.875Z,100940.17
2018-11-02T16:19:49.927Z,100944.80
2018-11-02T16:22:29.964Z,100949.10
2018-11-02T16:25:07.788Z,100955.44
2018-11-02T16:27:45.665Z,100960.69
2018-11-02T16:30:21.545Z,100966.28
2018-11-02T16:32:54.250Z,100970.47
2018-11-02T16:35:30.095Z,100968.86
2018-11-02T16:38:09.618Z,100971.98
2018-11-02T16:40:44.811Z,100976.52
2018-11-02T16:43:19.785Z,100985.97
2018-11-02T16:45:57.234Z,100994.81
2018-11-02T16:48:45.716Z,100992.76
2018-11-02T16:51:21.959Z,101004.59
2018-11-02T16:54:04.702Z,101006.13
2018-11-02T16:56:41.074Z,101017.11
2018-11-02T16:59:23.486Z,101021.13
2018-11-02T17:02:03.292Z,101024.33
2018-11-02T17:04:38.631Z,101028.31
2018-11-02T17:07:14.937Z,101025.38
2018-11-02T17:09:51.417Z,101038.48
2018-11-02T17:12:29.854Z,101049.89
2018-11-02T17:15:09.034Z,101058.53
2018-11-02T17:17:49.404Z,101065.77
2018-11-02T17:20:24.689Z,101072.58
2018-11-02T17:23:02.065Z,101072.66
2018-11-02T17:25:36.987Z,101075.56
2018-11-02T17:28:28.774Z,101085.17
2018-11-02T17:31:06.299Z,101093.69
2018-11-02T17:33:54.200Z,101093.30
2018-11-02T17:36:32.805Z,101093.70
2018-11-02T17:39:28.028Z,101095.87
2018-11-02T17:42:09.686Z,101098.52
2018-11-02T17:44:46.025Z,101100.25
2018-11-02T17:47:23.125Z,101106.06
2018-11-02T17:50:02.392Z,101108.39
2018-11-02T17:52:42.032Z,101117.98
2018-11-02T17:55:19.236Z,101125.19
2018-11-02T17:58:09.759Z,101129.97
2018-11-02T18:00:45.414Z,101134.94
2018-11-02T18:03:22.229Z,101134.98
2018-11-02T18:05:58.990Z,101137.39
2018-11-02T18:08:34.896Z,101142.63
2018-11-02T18:11:10.826Z,101144.41
2018-11-02T18:13:53.482Z,101148.17
2018-11-02T18:16:36.349Z,101154.72
2018-11-02T18:19:14.642Z,101157.66
2018-11-02T18:21:47.332Z,101153.98
2018-11-02T18:24:24.953Z,101159.51
2018-11-02T18:27:01.948Z,101166.61
2018-11-02T18:29:53.994Z,101173.03
2018-11-02T18:32:29.993Z,101172.13
2018-11-02T18:35:12.083Z,101176.78
2018-11-02T18:37:49.744Z,101178.46
2018-11-02T18:40:25.971Z,101183.21
2018-11-02T18:43:01.714Z,101186.50
2018-11-02T18:45:43.523Z,101185.25
2018-11-02T18:48:22.379Z,101200.66
2018-11-02T18:50:57.361Z,101203.36
2018-11-02T18:53:39.326Z,101202.73
2018-11-02T18:56:15.789Z,101208.21
2018-11-02T18:58:53.805Z,101217.33
2018-11-02T19:01:30.087Z,101221.18
2018-11-02T19:04:09.004Z,101218.00
2018-11-02T19:06:47.314Z,101223.29
2018-11-02T19:09:31.206Z,101217.97
2018-11-02T19:12:06.609Z,101230.19
2018-11-02T19:14:42.163Z,101240.01
2018-11-02T19:17:17.430Z,101242.27
2018-11-02T19:19:52.373Z,101244.36
2018-11-02T19:22:28.484Z,101249.25
2018-11-02T19:25:07.156Z,101254.82
2018-11-02T19:27:44.338Z,101253.74
2018-11-02T19:30:19.809Z,101256.27
2018-11-02T19:32:59.938Z,101262.42
2018-11-02T19:35:34.675Z,101265.23
2018-11-02T19:38:12.976Z,101265.27
2018-11-02T19:40:47.675Z,101262.28
2018-11-02T19:43:30.560Z,101266.39
2018-11-02T19:46:19.685Z,101261.37
2018-11-02T19:48:56.396Z,101264.14
2018-11-02T19:51:53.601Z,101264.70
2018-11-02T19:54:29.145Z,101262.34
2018-11-02T19:57:11.370Z,101265.52
2018-11-02T19:59:49.826Z,101268.80
2018-11-02T20:02:26.423Z,101272.48
2018-11-02T20:05:05.731Z,101274.59
2018-11-02T20:07:54.832Z,101282.19
2018-11-02T20:10:31.498Z,101284.41
2018-11-02T20:13:07.343Z,101283.68
2018-11-02T20:15:43.140Z,101290.00
2018-11-02T20:18:17.193Z,101289.66
2018-11-02T20:20:59.468Z,101294.23
2018-11-02T20:23:34.391Z,101300.14
2018-11-02T20:26:10.863Z,101297.17
2018-11-02T20:28:52.796Z,101295.19
2018-11-02T20:31:31.978Z,101296.28
2018-11-02T20:34:10.126Z,101298.64
2018-11-02T20:36:51.577Z,101296.51
2018-11-02T20:39:26.785Z,101295.61
2018-11-02T20:42:05.010Z,101298.73
2018-11-02T20:44:44.440Z,101299.22
2018-11-02T20:47:19.651Z,101298.59
2018-11-02T20:50:07.743Z,101293.87
2018-11-02T20:52:45.708Z,101293.96
2018-11-02T20:55:21.665Z,101298.13
2018-11-02T20:57:55.456Z,101300.33
2018-11-02T21:00:32.303Z,101302.63
2018-11-02T21:03:12.117Z,101305.69
2018-11-02T21:05:53.369Z,101310.03
2018-11-02T21:08:33.601Z,101311.70
2018-11-02T21:11:11.620Z,101313.08
2018-11-02T21:13:52.024Z,101323.56
2018-11-02T21:16:31.711Z,101320.53
2018-11-02T21:19:09.482Z,101323.48
2018-11-02T21:21:57.128Z,101336.15
2018-11-02T21:24:37.222Z,101336.02
2018-11-02T21:27:20.495Z,101341.16
2018-11-02T21:30:00.059Z,101337.66
2018-11-02T21:32:41.338Z,101337.08
2018-11-02T21:35:25.404Z,101337.92
2018-11-02T21:38:05.577Z,101339.50
2018-11-02T21:40:41.493Z,101341.39
2018-11-02T21:43:16.672Z,101340.34
2018-11-02T21:46:30.818Z,101337.65
2018-11-02T21:49:29.424Z,101335.75
2018-11-02T21:52:08.234Z,101329.55
2018-11-02T21:54:50.199Z,101334.27
2018-11-02T21:57:27.909Z,101328.54
2018-11-02T22:00:04.144Z,101324.19
2018-11-02T22:02:41.608Z,101330.55
2018-11-02T22:05:18.519Z,101329.52
2018-11-02T22:07:52.952Z,101338.15
2018-11-02T22:10:26.902Z,101335.46
2018-11-02T22:13:05.431Z,101338.36
2018-11-02T22:15:40.765Z,101336.69
2018-11-02T22:18:14.195Z,101341.36
2018-11-02T22:20:52.067Z,101342.12
2018-11-02T22:23:29.734Z,101346.73
2018-11-02T22:26:03.903Z,101350.88
2018-11-02T22:28:47.244Z,101355.39
2018-11-02T22:31:23.992Z,101359.86
2018-11-02T22:33:58.339Z,101357.07
2018-11-02T22:39:32.655Z,101362.19
2018-11-02T22:42:08.670Z,101365.80
2018-11-02T22:44:44.494Z,101368.86
2018-11-02T22:47:21.478Z,101367.56
2018-11-02T22:49:54.135Z,101374.27
2018-11-02T22:52:27.815Z,101371.63
2018-11-02T22:55:11.710Z,101368.36
2018-11-02T22:57:51.702Z,101377.20
2018-11-02T23:00:27.631Z,101376.84
2018-11-02T23:03:02.856Z,101370.05
2018-11-02T23:05:37.750Z,101359.25
2018-11-02T23:08:11.707Z,101359.55
2018-11-02T23:10:48.868Z,101366.72
2018-11-02T23:13:27.614Z,101365.34
2018-11-02T23:16:04.112Z,101379.44
2018-11-02T23:18:38.873Z,101382.91
2018-11-02T23:21:11.403Z,101386.19
2018-11-02T23:23:47.691Z,101386.19
2018-11-02T23:26:25.125Z,101386.93
2018-11-02T23:28:59.532Z,101384.75
2018-11-02T23:31:53.857Z,101379.58
2018-11-02T23:34:38.525Z,101371.47
2018-11-02T23:37:24.358Z,101366.14
2018-11-02T23:39:59.763Z,101365.55
2018-11-02T23:42:34.522Z,101369.70
2018-11-02T23:45:12.499Z,101371.30
2018-11-02T23:47:51.814Z,101368.80
2018-11-02T23:50:26.267Z,101368.08
2018-11-02T23:53:00.784Z,101371.69
2018-11-02T23:55:33.330Z,101369.44
2018-11-02T23:58:06.231Z,101364.52
